Teaticket, Massachusetts
Current Conditions -  °F | °C
As of 12:35 AM on Monday 20 Oct 2014 (Local Time) from KFMH Reporting Station
Broken Clouds Broken Clouds  
Wind Chill: 39°   Ceiling: 5000
Heat Index: 45°   Visibility: 10mi
Dew Point: 32°   Wind: 10mph
Humidity: 61%   Direction: 300°WNW
Pressure: 29.96"   Gusts: NA
Location:  41.6005°N, 70.5664°W
Report Text: KFMH 200435Z AUTO 30009KT 10SM SCT042 BKN050 07/M00 A2996 RMK AO2
Loading
Personal Weather Stations






























Interactive Weather Map
Tropical Storm Tracking
New forecast layout! Learn more

10-Day Weather Forecast

Advertisements
Track Severe Weather on mobile